Time;durP1;ratioP1;P1;durP2;ratioP2;P2;SDS_P1;SDS_P2;PMS_P1;PMS_P2;Temp;Humidity;BMP_temperature;BMP_pressure;BME280_temperature;BME280_humidity;BME280_pressure;Samples;Min_cycle;Max_cycle;Signal;HPM_P1;HPM_P2
2022/07/26 00:02:07;;;;;;;10.27;2.92;;;;;;;17.73;84.88;101277.69;5051521;28;20028;-59
2022/07/26 00:04:32;;;;;;;4.47;1.40;;;;;;;17.77;85.22;101284.69;5050323;28;20116;-59
2022/07/26 00:06:58;;;;;;;4.85;1.77;;;;;;;17.77;84.66;101287.31;5050468;28;20535;-59
2022/07/26 00:09:23;;;;;;;5.00;1.83;;;;;;;17.75;84.83;101291.66;5051184;28;20028;-59
2022/07/26 00:11:49;;;;;;;4.45;1.45;;;;;;;17.74;85.32;101296.88;5049829;28;20133;-59
2022/07/26 00:14:14;;;;;;;3.83;1.60;;;;;;;17.73;85.37;101290.78;5050472;28;20162;-59
2022/07/26 00:16:40;;;;;;;3.45;1.42;;;;;;;17.67;85.74;101292.44;5050587;28;20036;-59
2022/07/26 00:19:09;;;;;;;3.83;1.70;;;;;;;17.63;85.99;101295.03;5050316;28;20053;-59
2022/07/26 00:21:38;;;;;;;8.30;2.20;;;;;;;17.58;86.28;101288.00;5050346;28;20025;-58
2022/07/26 00:24:04;;;;;;;4.63;1.50;;;;;;;17.55;86.48;101288.88;5049875;28;20090;-59
2022/07/26 00:26:29;;;;;;;3.85;1.30;;;;;;;17.58;86.38;101288.00;5050204;28;20028;-59
2022/07/26 00:28:55;;;;;;;6.03;1.58;;;;;;;17.51;87.17;101282.72;5037275;28;20018;-59
2022/07/26 00:31:20;;;;;;;8.18;1.58;;;;;;;17.53;87.07;101287.97;5031669;28;20036;-59
2022/07/26 00:33:45;;;;;;;4.28;1.33;;;;;;;17.56;87.22;101293.22;5032209;28;20024;-59
2022/07/26 00:36:11;;;;;;;4.65;1.40;;;;;;;17.54;87.05;101288.84;5041998;28;20283;-59
2022/07/26 00:38:37;;;;;;;7.28;1.63;;;;;;;17.46;87.58;101294.88;5030889;28;20026;-59
2022/07/26 00:41:03;;;;;;;6.50;1.58;;;;;;;17.37;87.93;101297.41;5032280;28;20029;-59
2022/07/26 00:43:28;;;;;;;4.05;1.73;;;;;;;17.41;88.10;101299.22;5043169;28;20116;-58
2022/07/26 00:45:53;;;;;;;5.20;1.63;;;;;;;17.44;88.32;101296.59;5031717;28;20052;-58
2022/07/26 00:48:18;;;;;;;8.15;1.70;;;;;;;17.45;87.95;101300.97;5033498;28;20021;-58
2022/07/26 00:50:44;;;;;;;6.80;1.48;;;;;;;17.50;87.87;101301.03;5044369;28;20103;-59
2022/07/26 00:53:10;;;;;;;4.05;1.23;;;;;;;17.48;87.64;101301.03;5045604;28;20032;-58
2022/07/26 00:55:35;;;;;;;6.25;1.75;;;;;;;17.51;87.89;101301.06;5047942;28;20035;-59
2022/07/26 00:58:01;;;;;;;6.30;1.77;;;;;;;17.49;87.73;101297.53;5048971;28;20021;-59
2022/07/26 01:00:27;;;;;;;5.55;1.70;;;;;;;17.48;88.46;101297.53;5049589;28;20356;-59
2022/07/26 01:02:57;;;;;;;6.07;1.67;;;;;;;17.53;87.99;101293.22;5049912;28;20078;-59
2022/07/26 01:05:23;;;;;;;5.63;2.00;;;;;;;17.47;87.90;101288.78;5049812;28;20063;-58
2022/07/26 01:07:48;;;;;;;7.50;1.83;;;;;;;17.47;88.77;101294.00;5049112;28;20066;-59
2022/07/26 01:10:14;;;;;;;5.38;1.60;;;;;;;17.47;89.20;101291.41;5049594;28;20607;-60
2022/07/26 01:12:41;;;;;;;5.90;1.65;;;;;;;17.48;88.95;101294.91;5049452;28;20033;-59
2022/07/26 01:15:08;;;;;;;5.68;2.00;;;;;;;17.46;89.58;101292.28;5049561;28;20120;-59
2022/07/26 01:17:33;;;;;;;6.15;2.00;;;;;;;17.46;89.68;101294.00;5049412;28;20032;-59
2022/07/26 01:19:59;;;;;;;7.32;2.28;;;;;;;17.46;89.99;101291.38;5048916;28;20021;-58
2022/07/26 01:22:24;;;;;;;6.25;1.83;;;;;;;17.40;90.49;101285.22;5049301;28;20032;-59
2022/07/26 01:24:49;;;;;;;7.65;1.92;;;;;;;17.43;90.22;101286.13;5049320;28;20053;-59
2022/07/26 01:27:15;;;;;;;5.43;1.55;;;;;;;17.40;90.87;101281.72;5047715;28;20086;-58
2022/07/26 01:29:40;;;;;;;3.97;1.65;;;;;;;17.41;90.71;101283.50;5034706;28;20416;-59
2022/07/26 01:32:07;;;;;;;4.68;1.60;;;;;;;17.43;90.88;101280.88;5049673;28;20020;-59
2022/07/26 01:34:32;;;;;;;6.32;1.85;;;;;;;17.41;90.87;101275.63;5048931;28;20017;-60
2022/07/26 01:36:59;;;;;;;5.50;2.25;;;;;;;17.39;91.38;101270.38;5048896;28;20032;-59
2022/07/26 01:39:25;;;;;;;8.00;2.58;;;;;;;17.38;91.63;101273.84;5049680;28;20408;-59
2022/07/26 01:41:52;;;;;;;6.53;2.30;;;;;;;17.40;91.99;101279.09;5049403;28;20020;-59
2022/07/26 01:44:18;;;;;;;6.35;2.00;;;;;;;17.41;92.46;101278.25;5049119;28;20111;-59
2022/07/26 01:46:43;;;;;;;6.85;2.00;;;;;;;17.41;93.69;101280.88;5048704;28;20375;-59
2022/07/26 01:49:08;;;;;;;10.02;2.25;;;;;;;17.43;94.56;101286.97;5048640;28;20025;-59
2022/07/26 01:51:34;;;;;;;6.47;2.17;;;;;;;17.42;94.92;101290.47;5048590;28;20020;-59
2022/07/26 01:54:00;;;;;;;7.35;1.98;;;;;;;17.42;95.16;101290.47;5048548;28;20033;-59
2022/07/26 01:56:26;;;;;;;8.15;1.73;;;;;;;17.44;95.33;101293.09;5049060;28;20035;-58
2022/07/26 01:58:52;;;;;;;7.40;2.42;;;;;;;17.43;95.52;101291.34;5048369;28;20021;-59
2022/07/26 02:01:17;;;;;;;7.95;2.28;;;;;;;17.43;95.11;101297.47;5048734;28;20450;-59
2022/07/26 02:03:43;;;;;;;8.13;2.20;;;;;;;17.40;95.50;101297.44;5048406;28;20021;-58
2022/07/26 02:06:08;;;;;;;5.15;2.00;;;;;;;17.42;95.60;101303.56;5048616;28;20361;-58
2022/07/26 02:08:33;;;;;;;7.07;2.78;;;;;;;17.41;95.55;101301.81;5047779;28;20200;-58
2022/07/26 02:10:59;;;;;;;8.20;2.63;;;;;;;17.43;95.49;101292.22;5047913;28;20465;-59
2022/07/26 02:13:25;;;;;;;6.78;2.70;;;;;;;17.42;96.32;101302.69;5047802;28;20078;-59
2022/07/26 02:15:51;;;;;;;8.82;2.45;;;;;;;17.42;95.84;101295.72;5048092;28;20154;-59
2022/07/26 02:18:16;;;;;;;10.32;2.70;;;;;;;17.44;96.11;101294.00;5048274;28;20433;-60
2022/07/26 02:20:41;;;;;;;10.23;2.58;;;;;;;17.46;96.28;101301.88;5047737;28;20048;-57
2022/07/26 02:23:07;;;;;;;7.55;2.92;;;;;;;17.44;96.11;101294.00;5048062;28;20041;-58
2022/07/26 02:25:32;;;;;;;7.70;2.65;;;;;;;17.43;96.63;101296.59;5048195;28;20384;-58
2022/07/26 02:27:59;;;;;;;7.55;2.67;;;;;;;17.43;96.68;101297.47;5046865;28;20021;-59
2022/07/26 02:30:25;;;;;;;10.35;2.85;;;;;;;17.42;96.96;101297.44;5035153;28;20534;-59
2022/07/26 02:32:50;;;;;;;9.15;3.03;;;;;;;17.37;96.91;101300.91;5047642;28;20037;-59
2022/07/26 02:35:15;;;;;;;9.45;2.65;;;;;;;17.37;97.61;101295.66;5047669;28;20489;-59
2022/07/26 02:37:41;;;;;;;7.72;2.35;;;;;;;17.40;97.40;101297.44;5047613;28;20108;-59
2022/07/26 02:40:07;;;;;;;9.95;2.28;;;;;;;17.40;98.01;101307.91;5047931;28;20018;-58
2022/07/26 02:42:32;;;;;;;7.38;3.22;;;;;;;17.44;96.96;101312.31;5046539;28;20124;-58
2022/07/26 02:44:58;;;;;;;8.38;2.90;;;;;;;17.44;97.84;101317.56;5047830;28;20047;-58
2022/07/26 02:47:24;;;;;;;8.32;3.20;;;;;;;17.43;98.02;101313.16;5047776;28;20446;-59
2022/07/26 02:49:49;;;;;;;10.32;2.92;;;;;;;17.42;98.21;101310.53;5047083;28;20495;-59
2022/07/26 02:52:14;;;;;;;10.30;3.25;;;;;;;17.41;98.28;101320.16;5047505;28;20039;-59
2022/07/26 02:54:40;;;;;;;8.30;2.70;;;;;;;17.41;98.23;101320.16;5047954;28;20051;-59
2022/07/26 02:57:05;;;;;;;12.45;2.95;;;;;;;17.41;98.00;101317.53;5047545;28;20021;-59
2022/07/26 02:59:30;;;;;;;7.70;2.65;;;;;;;17.40;98.68;101318.38;5047551;28;20025;-58
2022/07/26 03:01:56;;;;;;;8.80;2.95;;;;;;;17.37;98.42;101315.75;5047624;28;20055;-59
2022/07/26 03:04:21;;;;;;;10.18;3.08;;;;;;;17.36;98.98;101317.47;5048199;28;20354;-59
2022/07/26 03:06:46;;;;;;;9.75;3.25;;;;;;;17.37;99.18;101314.00;5048054;28;20052;-58
2022/07/26 03:09:12;;;;;;;10.38;3.50;;;;;;;17.38;98.74;101321.00;5046859;28;20079;-59
2022/07/26 03:11:37;;;;;;;12.07;3.08;;;;;;;17.37;99.53;101323.59;5047648;28;20031;-60
2022/07/26 03:14:02;;;;;;;13.07;4.30;;;;;;;17.38;100.00;101330.56;5047618;28;20140;-58
2022/07/26 03:16:28;;;;;;;5.53;3.05;;;;;;;17.40;99.73;101335.00;5047393;28;20056;-58
2022/07/26 03:18:53;;;;;;;13.27;4.07;;;;;;;17.43;98.86;101335.88;5046692;28;20087;-59
2022/07/26 03:21:18;;;;;;;7.78;3.30;;;;;;;17.42;100.00;101337.63;5047204;28;20049;-58
2022/07/26 03:23:44;;;;;;;9.85;3.85;;;;;;;17.43;100.00;101334.13;5047320;28;20020;-59
2022/07/26 03:26:09;;;;;;;10.80;4.00;;;;;;;17.42;100.00;101339.34;5047463;28;20021;-59
2022/07/26 03:28:35;;;;;;;9.32;3.58;;;;;;;17.40;100.00;101335.00;5040894;28;20061;-59
2022/07/26 03:31:01;;;;;;;11.35;3.58;;;;;;;17.42;100.00;101340.25;5039064;28;20035;-59
2022/07/26 03:33:27;;;;;;;9.88;4.00;;;;;;;17.45;100.00;101342.03;5046865;28;20086;-59
2022/07/26 03:35:52;;;;;;;9.65;4.13;;;;;;;17.45;100.00;101342.88;5047544;28;20118;-59
2022/07/26 03:38:17;;;;;;;12.18;4.35;;;;;;;17.44;100.00;101351.63;5047289;28;20025;-58
2022/07/26 03:40:43;;;;;;;13.57;4.65;;;;;;;17.45;100.00;101350.75;5046755;28;20028;-58
2022/07/26 03:43:08;;;;;;;16.77;4.40;;;;;;;17.44;100.00;101356.84;5046712;28;20120;-59
2022/07/26 03:45:33;;;;;;;10.77;4.65;;;;;;;17.44;100.00;101351.63;5047021;28;20471;-59
2022/07/26 03:47:59;;;;;;;12.07;4.75;;;;;;;17.46;100.00;101357.75;5046121;28;20303;-59
2022/07/26 03:50:24;;;;;;;9.50;3.60;;;;;;;17.45;100.00;101348.13;5045771;28;20115;-59
2022/07/26 03:52:49;;;;;;;8.38;3.05;;;;;;;17.46;100.00;101365.63;5046001;28;20051;-58
2022/07/26 03:57:59;;;;;;;13.18;4.47;;;;;;;17.48;100.00;101363.91;5045007;28;20039;-59
2022/07/26 04:00:24;;;;;;;10.68;3.97;;;;;;;17.44;100.00;101356.84;5044874;28;20469;-59
2022/07/26 04:02:51;;;;;;;10.82;4.10;;;;;;;17.44;100.00;101366.44;5045434;28;20017;-57
2022/07/26 04:05:16;;;;;;;12.73;3.95;;;;;;;17.44;100.00;101356.84;5046792;28;20028;-58
2022/07/26 04:07:45;;;;;;;10.60;3.72;;;;;;;17.43;100.00;101365.56;5046863;28;20612;-58
2022/07/26 04:10:11;;;;;;;17.10;4.05;;;;;;;17.43;100.00;101370.78;5047190;28;20108;-59
2022/07/26 04:12:37;;;;;;;13.90;4.28;;;;;;;17.44;100.00;101364.72;5046928;28;20025;-59
2022/07/26 04:15:04;;;;;;;11.88;4.30;;;;;;;17.41;100.00;101362.06;5047377;28;20358;-59
2022/07/26 04:17:39;;;;;;;16.42;5.05;;;;;;;17.43;100.00;101362.94;5045651;28;20029;-58
2022/07/26 04:20:06;;;;;;;11.50;4.07;;;;;;;17.45;100.00;101360.38;5046970;28;20028;-59
2022/07/26 04:22:33;;;;;;;14.57;5.07;;;;;;;17.41;100.00;101369.94;5046952;28;20021;-59
2022/07/26 04:24:59;;;;;;;11.50;4.93;;;;;;;17.40;100.00;101368.16;5046907;28;20036;-59
2022/07/26 04:27:24;;;;;;;9.93;4.35;;;;;;;17.41;100.00;101372.53;5047037;28;20028;-59
2022/07/26 04:29:50;;;;;;;12.38;4.30;;;;;;;17.38;100.00;101377.72;5031919;28;20025;-59
2022/07/26 04:32:16;;;;;;;12.20;4.15;;;;;;;17.35;100.00;101380.31;5047537;28;20033;-59
2022/07/26 04:34:41;;;;;;;10.77;4.68;;;;;;;17.38;100.00;101382.97;5050277;28;20032;-59
2022/07/26 04:37:06;;;;;;;13.63;4.97;;;;;;;17.37;100.00;101381.22;5050310;28;20020;-59
2022/07/26 04:39:31;;;;;;;11.57;4.65;;;;;;;17.36;100.00;101384.72;5049836;28;20135;-59
2022/07/26 04:41:57;;;;;;;10.70;4.43;;;;;;;17.36;100.00;101385.56;5050524;28;20059;-58
2022/07/26 04:44:22;;;;;;;11.15;4.82;;;;;;;17.37;100.00;101382.09;5050462;28;20037;-58
2022/07/26 04:46:47;;;;;;;11.20;3.78;;;;;;;17.37;100.00;101386.47;5049662;28;20033;-59
2022/07/26 04:49:12;;;;;;;9.77;4.18;;;;;;;17.41;100.00;101393.50;5049743;28;20090;-58
2022/07/26 04:51:38;;;;;;;9.35;3.90;;;;;;;17.45;100.00;101382.19;5049944;28;20020;-59
2022/07/26 04:54:03;;;;;;;12.73;3.92;;;;;;;17.50;100.00;101388.34;5050348;28;20025;-58
2022/07/26 04:56:29;;;;;;;13.27;4.43;;;;;;;17.46;100.00;101385.69;5049969;28;20035;-59
2022/07/26 04:58:54;;;;;;;11.60;4.10;;;;;;;17.47;100.00;101392.66;5048327;28;20017;-59
2022/07/26 05:01:19;;;;;;;7.90;3.92;;;;;;;17.45;100.00;101384.78;5049202;28;20021;-58
2022/07/26 05:03:44;;;;;;;12.75;4.10;;;;;;;17.43;100.00;101394.38;5049676;28;20468;-59
2022/07/26 05:06:11;;;;;;;9.65;3.22;;;;;;;17.44;100.00;101404.00;5049214;28;20032;-59
2022/07/26 05:08:36;;;;;;;11.40;4.07;;;;;;;17.46;100.00;101397.06;5049760;28;20029;-59
2022/07/26 05:11:02;;;;;;;10.35;3.88;;;;;;;17.47;100.00;101398.81;5049188;28;20070;-59
2022/07/26 05:13:28;;;;;;;11.55;3.88;;;;;;;17.46;100.00;101404.91;5049829;28;20036;-59
2022/07/26 05:15:54;;;;;;;11.30;4.15;;;;;;;17.45;100.00;101404.91;5049500;28;20016;-59
2022/07/26 05:18:19;;;;;;;13.80;4.97;;;;;;;17.46;100.00;101404.91;5049717;28;20049;-59
2022/07/26 05:20:44;;;;;;;11.00;4.53;;;;;;;17.41;100.00;101411.84;5049496;28;20025;-59
2022/07/26 05:23:10;;;;;;;10.75;3.78;;;;;;;17.44;100.00;101414.47;5049369;28;20031;-59
2022/07/26 05:25:36;;;;;;;14.20;4.90;;;;;;;17.48;100.00;101416.28;5048779;28;20032;-59
2022/07/26 05:28:02;;;;;;;9.07;3.88;;;;;;;17.55;100.00;101411.13;5047954;28;20025;-58
2022/07/26 05:30:28;;;;;;;9.23;4.25;;;;;;;17.59;100.00;101420.78;5037103;28;20090;-59
2022/07/26 05:32:54;;;;;;;13.18;4.10;;;;;;;17.62;100.00;101420.81;5049122;28;20036;-58
2022/07/26 05:35:20;;;;;;;14.27;5.28;;;;;;;17.67;100.00;101424.34;5049225;28;20049;-59
2022/07/26 05:37:45;;;;;;;12.45;4.60;;;;;;;17.69;100.00;101425.25;5049951;28;20060;-59
2022/07/26 05:40:11;;;;;;;7.53;4.18;;;;;;;17.77;100.00;101426.22;5049253;28;20375;-58
2022/07/26 05:42:36;;;;;;;10.77;4.47;;;;;;;17.83;100.00;101427.16;5048961;28;20033;-59
2022/07/26 05:45:03;;;;;;;10.00;3.92;;;;;;;17.91;100.00;101428.13;5048333;28;20028;-59
2022/07/26 05:47:29;;;;;;;15.60;4.65;;;;;;;17.99;100.00;101426.47;5049006;28;20029;-59
2022/07/26 05:49:54;;;;;;;8.43;4.45;;;;;;;18.08;100.00;101438.78;5048696;28;20037;-59
2022/07/26 05:52:22;;;;;;;12.73;4.47;;;;;;;18.20;100.00;101438.06;5048572;28;20017;-59
2022/07/26 05:54:47;;;;;;;12.80;4.72;;;;;;;18.33;99.99;101435.56;5044904;28;20335;-59
2022/07/26 05:57:13;;;;;;;10.63;3.63;;;;;;;18.44;97.53;101441.75;5034486;28;20036;-58
2022/07/26 05:59:38;;;;;;;11.52;4.65;;;;;;;18.55;97.14;101444.47;5045104;28;20025;-58
2022/07/26 06:02:04;;;;;;;9.40;3.95;;;;;;;18.62;96.26;101445.41;5040148;28;20033;-58
2022/07/26 06:04:29;;;;;;;13.18;4.40;;;;;;;18.69;95.55;101447.22;5044548;28;20041;-58
2022/07/26 06:06:54;;;;;;;9.10;4.63;;;;;;;18.75;95.54;101449.00;5042374;28;20049;-58
2022/07/26 06:09:20;;;;;;;9.05;4.00;;;;;;;18.81;94.89;101446.44;5043104;28;20037;-59
2022/07/26 06:11:46;;;;;;;8.10;4.55;;;;;;;18.90;94.55;101450.88;5033708;28;20025;-58
2022/07/26 06:14:11;;;;;;;8.15;4.05;;;;;;;19.00;93.68;101445.66;5044254;28;20052;-59
2022/07/26 06:16:36;;;;;;;8.73;3.80;;;;;;;19.12;92.36;101444.91;5046506;28;20032;-59
2022/07/26 06:19:02;;;;;;;11.45;4.40;;;;;;;19.18;91.45;101447.56;5045993;28;20049;-59
2022/07/26 06:21:27;;;;;;;9.48;4.38;;;;;;;19.26;90.23;101442.38;5045425;28;20043;-59
2022/07/26 06:23:52;;;;;;;9.82;3.78;;;;;;;19.36;90.49;101451.16;5046802;28;20482;-58
2022/07/26 06:26:18;;;;;;;8.48;3.70;;;;;;;19.48;90.30;101455.63;5046807;28;20542;-60
2022/07/26 06:28:43;;;;;;;7.90;3.40;;;;;;;19.59;89.44;101460.91;5040138;28;20048;-59
2022/07/26 06:31:09;;;;;;;6.72;3.17;;;;;;;19.67;88.61;101452.19;5041432;28;20020;-59
2022/07/26 06:33:34;;;;;;;7.13;3.38;;;;;;;19.74;88.22;101460.97;5048137;28;20017;-59
2022/07/26 06:36:00;;;;;;;7.03;2.63;;;;;;;19.88;87.67;101452.22;5047378;28;20020;-59
2022/07/26 06:38:25;;;;;;;6.35;3.58;;;;;;;19.98;85.98;101458.41;5046819;28;20108;-58
2022/07/26 06:40:50;;;;;;;9.18;3.30;;;;;;;20.09;85.19;101471.63;5047164;28;20477;-59
2022/07/26 06:43:15;;;;;;;6.03;2.60;;;;;;;20.20;83.95;101464.59;5047254;28;20024;-58
2022/07/26 06:45:41;;;;;;;10.90;3.42;;;;;;;20.32;82.89;101458.50;5039000;28;20118;-59
2022/07/26 06:48:06;;;;;;;4.72;2.72;;;;;;;20.45;81.55;101463.78;5046087;28;20025;-59
2022/07/26 06:50:31;;;;;;;7.10;3.35;;;;;;;20.52;80.97;101460.28;5047389;28;20435;-58
2022/07/26 06:52:57;;;;;;;7.82;2.97;;;;;;;20.61;81.09;101460.28;5046107;28;20110;-60
2022/07/26 06:55:22;;;;;;;6.30;2.78;;;;;;;20.75;80.34;101464.63;5045213;28;20027;-58
2022/07/26 06:57:48;;;;;;;6.47;2.90;;;;;;;20.91;79.71;101467.25;5046317;28;20029;-59
2022/07/26 07:00:14;;;;;;;6.90;3.10;;;;;;;20.99;79.05;101470.81;5046429;28;20468;-59
2022/07/26 07:02:39;;;;;;;6.40;2.83;;;;;;;21.10;77.59;101482.19;5041617;28;20032;-59
2022/07/26 07:05:05;;;;;;;4.70;2.42;;;;;;;21.05;76.60;101480.41;5046171;28;20542;-59
2022/07/26 07:07:30;;;;;;;7.45;2.88;;;;;;;21.01;76.88;101484.84;5046370;28;20037;-59
2022/07/26 07:09:55;;;;;;;7.07;2.65;;;;;;;20.96;76.52;101486.59;5046463;28;20354;-59
2022/07/26 07:12:22;;;;;;;9.07;2.30;;;;;;;20.84;76.21;101488.34;5046277;28;20028;-59
2022/07/26 07:14:47;;;;;;;6.07;2.72;;;;;;;20.78;76.50;101485.69;5046563;28;20082;-58
2022/07/26 07:17:17;;;;;;;8.10;2.90;;;;;;;20.78;77.46;101493.59;5046447;28;20032;-58
2022/07/26 07:19:43;;;;;;;6.97;2.10;;;;;;;20.75;77.03;101488.34;5045653;28;20033;-58
2022/07/26 07:22:10;;;;;;;11.43;2.58;;;;;;;20.85;76.33;101495.34;5045892;28;20052;-59
2022/07/26 07:24:35;;;;;;;4.78;1.98;;;;;;;21.06;77.19;101488.34;5047358;28;20481;-59
2022/07/26 07:27:01;;;;;;;5.65;2.15;;;;;;;21.24;74.22;101491.81;5047193;28;20090;-59
2022/07/26 07:29:26;;;;;;;3.53;1.80;;;;;;;21.19;72.43;101489.19;5040775;28;20029;-59
2022/07/26 07:31:51;;;;;;;6.13;1.85;;;;;;;21.20;72.72;101487.44;5038303;28;20026;-59
2022/07/26 07:34:17;;;;;;;4.15;1.42;;;;;;;21.22;72.71;101488.31;5027841;28;20337;-59
2022/07/26 07:36:43;;;;;;;5.97;1.75;;;;;;;21.20;72.50;101500.59;5027957;28;20026;-58
2022/07/26 07:39:08;;;;;;;5.22;1.80;;;;;;;21.23;71.74;101497.94;5047112;28;20447;-59
2022/07/26 07:41:35;;;;;;;4.43;1.70;;;;;;;21.37;72.84;101497.06;5045653;28;20024;-59
2022/07/26 07:44:00;;;;;;;6.28;1.95;;;;;;;21.60;71.69;101489.94;5035669;28;20052;-59
2022/07/26 07:46:26;;;;;;;4.18;1.60;;;;;;;21.81;70.87;101492.53;5029692;28;20433;-59
2022/07/26 07:48:52;;;;;;;2.22;1.15;;;;;;;21.98;69.33;101500.38;5031113;28;20538;-58
2022/07/26 07:51:17;;;;;;;3.78;1.50;;;;;;;22.22;69.83;101495.81;5030924;28;20250;-60
2022/07/26 07:53:44;;;;;;;4.22;1.73;;;;;;;22.38;67.39;101495.72;5032377;28;20079;-60
2022/07/26 07:56:09;;;;;;;6.45;1.92;;;;;;;22.48;67.47;101497.41;5033343;28;20029;-59
2022/07/26 07:58:34;;;;;;;4.85;1.75;;;;;;;22.54;68.99;101499.97;5029882;28;20363;-59
2022/07/26 08:01:00;;;;;;;3.55;1.67;;;;;;;22.65;67.53;101497.28;5035663;28;20531;-58
2022/07/26 08:03:26;;;;;;;2.45;1.52;;;;;;;22.61;68.25;101503.44;5037004;28;20524;-59
2022/07/26 08:05:52;;;;;;;8.02;2.47;;;;;;;22.41;68.24;101498.34;5032506;28;20048;-59
2022/07/26 08:08:19;;;;;;;5.28;2.40;;;;;;;22.30;68.39;101504.56;5038421;28;20040;-59
2022/07/26 08:10:44;;;;;;;7.97;2.67;;;;;;;22.24;68.14;101507.22;5042255;28;20021;-59
2022/07/26 08:13:09;;;;;;;6.30;2.53;;;;;;;22.02;67.91;101507.34;5034053;28;20421;-59
2022/07/26 08:15:36;;;;;;;6.75;2.88;;;;;;;21.88;69.15;101517.09;5043253;28;20413;-59
2022/07/26 08:18:01;;;;;;;5.00;2.55;;;;;;;21.63;70.60;101510.16;5049103;28;20527;-59
2022/07/26 08:20:27;;;;;;;5.18;2.15;;;;;;;21.36;72.67;101519.91;5049135;28;20524;-59
2022/07/26 08:22:52;;;;;;;5.45;1.58;;;;;;;21.16;77.16;101525.19;5048142;28;20032;-58
2022/07/26 08:25:18;;;;;;;1.80;1.05;;;;;;;20.91;78.26;101543.63;5049115;28;20025;-59
2022/07/26 08:27:43;;;;;;;3.15;1.25;;;;;;;20.66;79.64;101541.00;5048907;28;20111;-59
2022/07/26 08:30:09;;;;;;;2.38;1.08;;;;;;;20.55;81.20;101555.03;5034729;28;20021;-59
2022/07/26 08:32:34;;;;;;;3.90;0.80;;;;;;;20.44;82.02;101551.47;5048348;28;20056;-59
2022/07/26 08:35:00;;;;;;;1.23;0.50;;;;;;;20.39;81.81;101554.13;5048571;28;20020;-59
2022/07/26 08:37:25;;;;;;;0.20;0.20;;;;;;;20.37;81.54;101562.00;5049143;28;20036;-59
2022/07/26 08:39:50;;;;;;;1.65;0.50;;;;;;;20.36;83.22;101560.22;5048803;28;20500;-59
2022/07/26 08:42:18;;;;;;;0.75;0.50;;;;;;;20.44;83.40;101557.63;5048189;28;20120;-58
2022/07/26 08:44:45;;;;;;;1.27;0.45;;;;;;;20.53;81.87;101559.41;5049083;28;20033;-59
2022/07/26 08:47:15;;;;;;;0.85;0.20;;;;;;;20.57;81.58;101563.81;5048946;28;20029;-59
2022/07/26 08:49:42;;;;;;;0.70;0.28;;;;;;;20.64;81.13;101560.31;5050655;28;20033;-59
2022/07/26 08:52:09;;;;;;;0.93;0.40;;;;;;;20.74;81.21;101569.06;5050445;28;20491;-58
2022/07/26 08:54:34;;;;;;;1.65;0.30;;;;;;;21.04;82.90;101571.75;5049812;28;20112;-59
2022/07/26 08:57:00;;;;;;;0.32;0.32;;;;;;;21.48;80.57;101558.50;5050006;28;20116;-59
2022/07/26 08:59:25;;;;;;;0.47;0.40;;;;;;;21.81;78.09;101556.72;5050103;28;20439;-60
2022/07/26 09:02:01;;;;;;;1.90;0.50;;;;;;;21.93;77.21;101566.31;5049935;28;20024;-59
2022/07/26 09:04:31;;;;;;;1.50;0.60;;;;;;;21.79;76.35;101568.97;5049654;28;20471;-59
2022/07/26 09:07:14;;;;;;;1.20;0.40;;;;;;;21.75;77.11;101575.13;5049567;28;20456;-59
2022/07/26 09:09:57;;;;;;;0.70;0.40;;;;;;;21.82;77.98;101574.28;5049585;28;20039;-59
2022/07/26 09:12:24;;;;;;;1.83;0.77;;;;;;;22.04;75.84;101571.56;5049710;28;20039;-59
2022/07/26 09:14:49;;;;;;;1.05;0.50;;;;;;;22.36;75.60;101571.41;5049664;28;20520;-59
2022/07/26 09:17:17;;;;;;;1.80;0.70;;;;;;;22.45;73.43;101573.09;5049373;28;20571;-58
2022/07/26 09:19:43;;;;;;;1.27;0.60;;;;;;;22.39;72.23;101576.66;5048898;28;20030;-58
2022/07/26 09:22:11;;;;;;;3.83;0.73;;;;;;;22.37;73.18;101583.69;5049792;28;20054;-59
2022/07/26 09:24:38;;;;;;;1.00;0.50;;;;;;;22.28;72.13;101588.16;5049335;28;20028;-59
2022/07/26 09:27:05;;;;;;;1.55;0.90;;;;;;;22.06;72.12;101590.91;5049738;28;20580;-59
2022/07/26 09:29:47;;;;;;;2.65;0.88;;;;;;;21.87;73.76;101594.50;5034957;28;20061;-58
2022/07/26 09:32:17;;;;;;;1.85;0.80;;;;;;;21.63;74.14;101589.25;5037610;28;20029;-59
2022/07/26 09:35:11;;;;;;;2.05;0.98;;;;;;;21.49;73.82;101605.09;5049406;28;20064;-59
2022/07/26 09:37:45;;;;;;;1.38;0.80;;;;;;;21.35;74.07;101591.94;5044042;28;20047;-59
2022/07/26 09:40:14;;;;;;;3.67;1.10;;;;;;;21.30;75.89;101597.22;5048533;28;20024;-59
2022/07/26 09:43:01;;;;;;;3.85;1.10;;;;;;;21.34;75.82;101606.88;5048683;28;20030;-59
2022/07/26 09:45:28;;;;;;;4.32;1.15;;;;;;;21.59;74.07;101601.56;5048988;28;20025;-59
2022/07/26 09:47:54;;;;;;;4.25;1.40;;;;;;;21.78;73.05;101598.00;5049658;28;20058;-60
2022/07/26 09:50:27;;;;;;;3.20;1.25;;;;;;;21.93;73.39;101597.09;5048578;28;20655;-59
2022/07/26 09:53:07;;;;;;;2.22;0.90;;;;;;;22.03;72.47;101604.09;5049508;28;20025;-59
2022/07/26 09:55:54;;;;;;;3.17;1.13;;;;;;;22.14;72.01;101600.53;5048940;28;20503;-59
2022/07/26 09:58:21;;;;;;;3.60;1.13;;;;;;;22.17;71.51;101601.41;5048918;28;20418;-59
2022/07/26 10:00:47;;;;;;;2.75;1.00;;;;;;;22.22;71.84;101616.34;5048379;28;20279;-59
2022/07/26 10:03:13;;;;;;;4.45;1.02;;;;;;;22.20;72.20;101626.88;5048498;28;20043;-58
2022/07/26 10:05:39;;;;;;;3.92;1.00;;;;;;;22.22;71.65;101614.56;5048804;28;20025;-59
2022/07/26 10:08:05;;;;;;;2.45;0.98;;;;;;;22.11;72.44;101619.03;5048866;28;20465;-59
2022/07/26 10:10:35;;;;;;;3.88;0.93;;;;;;;21.94;73.36;101619.97;5048750;28;20487;-59
2022/07/26 10:13:01;;;;;;;3.65;1.00;;;;;;;21.79;73.26;101624.38;5048791;28;20013;-59
2022/07/26 10:15:35;;;;;;;1.70;0.80;;;;;;;21.80;73.37;101622.66;5048489;28;20043;-58
2022/07/26 10:18:03;;;;;;;3.22;0.63;;;;;;;21.88;71.90;101620.84;5048666;28;20089;-59
2022/07/26 10:20:41;;;;;;;1.65;0.50;;;;;;;22.02;71.90;101628.72;5048361;28;20518;-59
2022/07/26 10:23:35;;;;;;;1.70;0.68;;;;;;;22.19;71.25;101625.16;5034955;28;20033;-59
2022/07/26 10:26:02;;;;;;;3.42;2.22;;;;;;;22.18;70.13;101633.97;5046802;28;20047;-59
2022/07/26 10:28:30;;;;;;;1.60;0.70;;;;;;;22.13;69.54;101631.31;5042684;28;20033;-58
2022/07/26 10:31:25;;;;;;;0.68;0.50;;;;;;;21.99;68.71;101626.09;5038945;28;20112;-59
2022/07/26 10:33:52;;;;;;;1.05;0.50;;;;;;;21.98;69.14;101632.28;5035751;28;20025;-59
2022/07/26 10:36:24;;;;;;;1.60;0.75;;;;;;;21.94;68.28;101631.41;5047745;28;20028;-59
2022/07/26 10:39:06;;;;;;;1.48;0.45;;;;;;;21.89;68.39;101634.94;5047785;28;20603;-59
2022/07/26 10:41:41;;;;;;;1.35;0.50;;;;;;;21.89;68.87;101637.56;5047949;28;20047;-60
2022/07/26 10:44:16;;;;;;;2.42;0.30;;;;;;;21.86;67.51;101645.50;5048188;28;20021;-59
2022/07/26 10:47:14;;;;;;;1.90;0.30;;;;;;;21.75;65.69;101643.72;5047693;28;20036;-59
2022/07/26 10:49:55;;;;;;;1.40;0.40;;;;;;;21.72;65.58;101643.72;5035486;28;20044;-58
2022/07/26 10:52:27;;;;;;;;;;;;;;;21.68;66.17;101648.13;5039880;28;20029;-58
2022/07/26 10:54:56;;;;;;;1.83;0.52;;;;;;;21.70;65.63;101654.28;5027501;28;19963;-58
2022/07/26 10:57:38;;;;;;;1.85;0.30;;;;;;;21.71;65.09;101655.16;5027763;28;20033;-59
2022/07/26 11:00:18;;;;;;;1.00;0.30;;;;;;;21.75;65.55;101658.69;5042470;28;20052;-59
2022/07/26 11:02:48;;;;;;;4.32;0.75;;;;;;;21.78;65.75;101661.28;5042139;28;20144;-59
2022/07/26 11:05:16;;;;;;;1.55;0.30;;;;;;;21.78;65.41;101659.56;5029468;28;20033;-59
2022/07/26 11:07:52;;;;;;;1.20;0.50;;;;;;;21.79;66.48;101661.28;5030751;28;20021;-59
2022/07/26 11:10:40;;;;;;;0.93;0.43;;;;;;;21.86;67.77;101669.25;5030448;28;20026;-57
2022/07/26 11:13:14;;;;;;;1.00;0.40;;;;;;;21.89;66.98;101670.06;5031069;28;20041;-58
2022/07/26 11:15:42;;;;;;;1.27;0.45;;;;;;;21.94;66.86;101673.59;5034227;28;20104;-59
2022/07/26 11:18:09;;;;;;;1.65;0.50;;;;;;;21.96;67.21;101676.25;5035224;28;20182;-59
2022/07/26 11:20:35;;;;;;;2.05;0.40;;;;;;;22.00;67.22;101677.09;5047389;28;20036;-59
2022/07/26 11:23:00;;;;;;;1.38;0.50;;;;;;;22.03;69.12;101677.97;5047561;28;20340;-58
2022/07/26 11:25:26;;;;;;;3.05;0.88;;;;;;;22.06;68.86;101677.06;5048102;28;20024;-59